Tama, Argentina
Current Conditions -  °F | °C
As of 2:00 PM on Wednesday 26 Nov 2014 (Local Time) from SACO Reporting Station
Scattered Clouds Scattered Clouds  
Wind Chill: 81°   Ceiling: Unl
Heat Index: 81°   Visibility: 6mi
Dew Point: 55°   Wind: 8mph
Humidity: 42%   Direction: 140°SE
Pressure: 30.03"   Gusts: NA
Location:  30.52°S, 66.53°W
Report Text: SACO 261700Z 14007KT 9999 SCT030FEW040CB 27/13 Q1017
Loading
Personal Weather Stations






























Interactive Weather Map New forecast layout! Learn more

10-Day Weather Forecast

Advertisements
Track Severe Weather on mobile